Killeen, Texas
Current Conditions -  °F | °C
As of 2:58 AM on Saturday 20 Dec 2014 (Local Time) from KHLR Reporting Station
Overcast Overcast  
Wind Chill: 45°   Ceiling: 1600
Heat Index: 47°   Visibility: 10mi
Dew Point: 44°   Wind: 5mph
Humidity: 91%   Direction: 350°N
Pressure: 30.19"   Gusts: NA
Location:  31.12°N, 97.73°W
Report Text: KHLR 200858Z AUTO 35004KT 10SM OVC016 08/07 A3019 RMK AO2 SLP224 T00820068 55000
Loading
Personal Weather Stations






























Interactive Weather Map New forecast layout! Learn more

10-Day Weather Forecast

Advertisements
Track Severe Weather on mobile